createdAt,value
2022-10-11T00:01:01.793Z,59.70
2022-10-11T00:03:30.013Z,59.50
2022-10-11T00:05:58.170Z,59.40
2022-10-11T00:08:26.255Z,59.20
2022-10-11T00:10:58.817Z,59.30
2022-10-11T00:13:28.797Z,59.20
2022-10-11T00:15:58.059Z,59.20
2022-10-11T00:18:26.857Z,59.20
2022-10-11T00:21:02.833Z,59.20
2022-10-11T00:23:30.961Z,59.40
2022-10-11T00:26:00.913Z,59.30
2022-10-11T00:28:30.634Z,59.30
2022-10-11T00:30:58.784Z,59.50
2022-10-11T00:33:27.105Z,59.40
2022-10-11T00:35:55.203Z,59.50
2022-10-11T00:38:23.296Z,59.50
2022-10-11T00:40:51.363Z,59.70
2022-10-11T00:43:21.399Z,59.70
2022-10-11T00:46:28.475Z,59.80
2022-10-11T00:49:01.561Z,60.10
2022-10-11T00:51:39.374Z,59.90
2022-10-11T00:54:12.448Z,60.00
2022-10-11T00:56:41.902Z,60.00
2022-10-11T00:59:14.632Z,60.00
2022-10-11T01:01:44.159Z,60.10
2022-10-11T01:04:12.292Z,60.10
2022-10-11T01:06:41.378Z,60.10
2022-10-11T01:09:10.857Z,60.20
2022-10-11T01:11:42.690Z,60.40
2022-10-11T01:14:40.701Z,60.50
2022-10-11T01:17:20.972Z,60.50
2022-10-11T01:20:25.157Z,60.40
2022-10-11T01:23:07.954Z,61.10
2022-10-11T01:25:45.646Z,60.30
2022-10-11T01:28:27.697Z,60.20
2022-10-11T01:31:02.988Z,60.40
2022-10-11T01:33:36.954Z,60.30
2022-10-11T01:36:13.510Z,60.40
2022-10-11T01:38:45.490Z,60.50
2022-10-11T01:41:17.971Z,60.70
2022-10-11T01:43:46.940Z,60.70
2022-10-11T01:46:17.979Z,60.70
2022-10-11T01:48:50.958Z,60.80
2022-10-11T01:51:21.152Z,61.00
2022-10-11T01:54:15.472Z,60.90
2022-10-11T01:57:10.763Z,61.10
2022-10-11T01:59:50.631Z,61.30
2022-10-11T02:02:32.738Z,61.20
2022-10-11T02:05:06.620Z,61.20
2022-10-11T02:07:42.619Z,61.10
2022-10-11T02:10:15.810Z,61.20
2022-10-11T02:12:49.632Z,61.40
2022-10-11T02:15:19.899Z,61.40
2022-10-11T02:17:55.328Z,61.50
2022-10-11T02:20:26.183Z,61.70
2022-10-11T02:23:01.065Z,61.70
2022-10-11T02:25:33.346Z,62.10
2022-10-11T02:28:05.520Z,61.80
2022-10-11T02:30:34.969Z,61.70
2022-10-11T02:33:25.316Z,61.90
2022-10-11T02:35:59.978Z,62.50
2022-10-11T02:38:34.077Z,62.20
2022-10-11T02:41:07.435Z,62.00
2022-10-11T02:43:37.515Z,62.10
2022-10-11T02:46:08.837Z,61.90
2022-10-11T02:48:39.860Z,62.10
2022-10-11T02:51:14.328Z,62.70
2022-10-11T02:53:42.594Z,63.20
2022-10-11T02:56:10.913Z,62.90
2022-10-11T02:58:39.179Z,63.10
2022-10-11T03:01:07.677Z,63.20
2022-10-11T03:03:36.047Z,63.20
2022-10-11T03:06:06.459Z,63.20
2022-10-11T03:08:35.405Z,63.60
2022-10-11T03:11:03.608Z,63.40
2022-10-11T03:13:31.848Z,63.20
2022-10-11T03:16:07.438Z,63.00
2022-10-11T03:18:35.823Z,63.10
2022-10-11T03:21:05.475Z,63.40
2022-10-11T03:23:33.704Z,63.70
2022-10-11T03:26:02.222Z,63.60
2022-10-11T03:28:30.758Z,63.90
2022-10-11T03:30:59.238Z,64.30
2022-10-11T03:33:27.541Z,64.50
2022-10-11T03:35:56.211Z,64.60
2022-10-11T03:38:25.866Z,64.80
2022-10-11T03:40:54.115Z,64.90
2022-10-11T03:43:22.374Z,65.00
2022-10-11T03:45:50.631Z,65.30
2022-10-11T03:48:18.832Z,65.50
2022-10-11T03:50:47.087Z,65.50
2022-10-11T03:53:15.297Z,65.50
2022-10-11T03:55:45.484Z,65.50
2022-10-11T03:58:13.750Z,65.60
2022-10-11T04:00:41.984Z,65.60
2022-10-11T04:03:10.212Z,65.60
2022-10-11T04:05:38.546Z,65.80
2022-10-11T04:08:11.821Z,66.00
2022-10-11T04:10:40.839Z,66.30
2022-10-11T04:13:11.575Z,66.20
2022-10-11T04:15:41.371Z,66.50
2022-10-11T04:18:09.950Z,66.40
2022-10-11T04:20:38.211Z,66.70
2022-10-11T04:23:06.455Z,66.60
2022-10-11T04:25:34.743Z,66.40
2022-10-11T04:28:02.977Z,66.40
2022-10-11T04:30:32.554Z,66.30
2022-10-11T04:33:00.842Z,66.50
2022-10-11T04:35:29.138Z,66.60
2022-10-11T04:37:57.378Z,66.80
2022-10-11T04:40:25.657Z,67.00
2022-10-11T04:42:53.941Z,66.70
2022-10-11T04:45:22.431Z,66.60
2022-10-11T04:47:52.066Z,66.60
2022-10-11T04:50:20.479Z,66.90
2022-10-11T04:52:48.737Z,66.90
2022-10-11T04:55:17.073Z,67.00
2022-10-11T04:57:45.299Z,67.20
2022-10-11T05:00:14.570Z,67.50
2022-10-11T05:02:42.831Z,67.60
2022-10-11T05:05:13.042Z,67.60
2022-10-11T05:07:41.244Z,67.70
2022-10-11T05:10:10.599Z,67.60
2022-10-11T05:12:38.866Z,67.70
2022-10-11T05:15:08.611Z,67.20
2022-10-11T05:17:36.930Z,67.50
2022-10-11T05:20:06.055Z,67.50
2022-10-11T05:22:35.748Z,67.90
2022-10-11T05:25:03.986Z,68.20
2022-10-11T05:27:32.222Z,68.10
2022-10-11T05:30:00.439Z,68.10
2022-10-11T05:32:28.649Z,68.30
2022-10-11T05:34:56.920Z,68.40
2022-10-11T05:37:25.180Z,68.80
2022-10-11T05:39:54.946Z,69.00
2022-10-11T05:42:23.177Z,69.50
2022-10-11T05:44:51.365Z,69.50
2022-10-11T05:47:19.598Z,69.60
2022-10-11T05:49:47.830Z,69.70
2022-10-11T05:52:19.817Z,69.50
2022-10-11T05:54:48.286Z,69.50
2022-10-11T05:57:18.286Z,69.40
2022-10-11T05:59:46.688Z,69.50
2022-10-11T06:02:15.110Z,69.50
2022-10-11T06:04:43.337Z,69.50
2022-10-11T06:07:11.637Z,69.50
2022-10-11T06:09:40.102Z,69.50
2022-10-11T06:12:08.525Z,69.60
2022-10-11T06:14:38.632Z,69.60
2022-10-11T06:17:06.902Z,69.90
2022-10-11T06:19:35.163Z,69.90
2022-10-11T06:22:03.478Z,69.70
2022-10-11T06:24:31.712Z,69.40
2022-10-11T06:27:00.465Z,69.40
2022-10-11T06:29:28.667Z,69.40
2022-10-11T06:31:58.496Z,69.40
2022-10-11T06:34:26.919Z,69.40
2022-10-11T06:36:55.202Z,69.30
2022-10-11T06:39:23.395Z,69.30
2022-10-11T06:41:51.609Z,69.20
2022-10-11T06:44:19.826Z,68.70
2022-10-11T06:46:48.037Z,68.10
2022-10-11T06:49:22.925Z,67.40
2022-10-11T06:51:53.696Z,66.70
2022-10-11T06:54:21.928Z,66.30
2022-10-11T06:56:50.145Z,66.10
2022-10-11T06:59:20.191Z,65.70
2022-10-11T07:01:48.451Z,65.40
2022-10-11T07:04:18.201Z,65.00
2022-10-11T07:06:46.407Z,64.40
2022-10-11T07:09:14.639Z,64.10
2022-10-11T07:12:32.548Z,63.70
2022-10-11T07:15:07.209Z,62.50
2022-10-11T07:17:48.679Z,61.90
2022-10-11T07:21:07.559Z,60.60
2022-10-11T07:23:37.244Z,59.80
2022-10-11T07:26:15.088Z,60.10
2022-10-11T07:28:46.237Z,59.60
2022-10-11T07:31:21.599Z,59.50
2022-10-11T07:34:03.932Z,59.10
2022-10-11T07:39:32.280Z,57.80
2022-10-11T07:42:00.526Z,57.90
2022-10-11T07:44:28.801Z,57.70
2022-10-11T07:46:57.016Z,57.70
2022-10-11T07:49:25.271Z,57.40
2022-10-11T07:51:54.873Z,57.00
2022-10-11T07:54:23.101Z,56.40
2022-10-11T07:56:51.292Z,56.20
2022-10-11T08:00:00.134Z,55.60
2022-10-11T08:02:32.311Z,54.20
2022-10-11T08:05:00.643Z,54.80
2022-10-11T08:07:30.470Z,54.30
2022-10-11T08:09:58.861Z,53.20
2022-10-11T08:15:18.596Z,51.60
2022-10-11T08:17:49.893Z,51.90
2022-10-11T08:20:18.152Z,50.90
2022-10-11T08:22:47.938Z,50.80
2022-10-11T08:25:16.274Z,50.10
2022-10-11T08:27:44.537Z,50.00
2022-10-11T08:30:14.133Z,49.80
2022-10-11T08:32:42.333Z,49.50
2022-10-11T08:43:17.897Z,47.80
2022-10-11T08:49:47.393Z,47.30
2022-10-11T08:52:22.503Z,46.80
2022-10-11T08:55:01.360Z,46.80
2022-10-11T08:57:33.036Z,46.40
2022-10-11T09:00:09.766Z,46.40
2022-10-11T09:03:07.124Z,46.20
2022-10-11T09:14:41.975Z,45.80
2022-10-11T09:17:29.052Z,44.30
2022-10-11T09:20:21.137Z,43.90
2022-10-11T09:22:57.652Z,43.40
2022-10-11T09:25:32.597Z,43.50
2022-10-11T09:28:12.053Z,42.80
2022-10-11T09:30:47.922Z,43.00
2022-10-11T09:33:22.107Z,42.90
2022-10-11T09:35:52.144Z,42.00
2022-10-11T09:38:32.274Z,42.50
2022-10-11T09:41:07.315Z,41.60
2022-10-11T09:44:02.218Z,41.90
2022-10-11T09:46:35.987Z,41.30
2022-10-11T09:49:11.369Z,41.00
2022-10-11T09:51:42.093Z,40.00
2022-10-11T09:54:13.100Z,40.10
2022-10-11T09:57:01.784Z,40.40
2022-10-11T09:59:32.322Z,39.10
2022-10-11T10:02:22.633Z,39.90
2022-10-11T10:04:59.576Z,39.10
2022-10-11T10:07:28.391Z,40.40
2022-10-11T10:09:56.726Z,40.40
2022-10-11T10:12:28.519Z,40.20
2022-10-11T10:15:04.277Z,40.80
2022-10-11T10:17:32.959Z,41.50
2022-10-11T10:20:05.619Z,41.90
2022-10-11T10:22:36.414Z,42.20
2022-10-11T10:25:08.137Z,42.30
2022-10-11T10:27:36.500Z,41.60
2022-10-11T10:30:17.117Z,42.00
2022-10-11T10:32:54.066Z,41.70
2022-10-11T10:35:33.339Z,41.60
2022-10-11T10:38:33.117Z,42.10
2022-10-11T10:41:05.843Z,42.00
2022-10-11T10:43:37.469Z,42.40
2022-10-11T10:46:25.941Z,42.40
2022-10-11T10:49:28.803Z,41.70
2022-10-11T10:52:03.217Z,41.30
2022-10-11T10:54:41.531Z,41.20
2022-10-11T10:57:17.486Z,40.60
2022-10-11T11:00:05.414Z,39.60
2022-10-11T11:02:45.624Z,39.20
2022-10-11T11:05:24.582Z,38.20
2022-10-11T11:08:01.541Z,38.20
2022-10-11T11:10:36.782Z,38.60
2022-10-11T11:13:19.013Z,38.00
2022-10-11T11:15:54.579Z,38.00
2022-10-11T11:18:35.551Z,38.60
2022-10-11T11:21:20.135Z,38.50
2022-10-11T11:23:57.555Z,38.60
2022-10-11T11:26:35.107Z,38.50
2022-10-11T11:29:24.330Z,38.40
2022-10-11T11:32:12.882Z,38.50
2022-10-11T11:34:46.697Z,38.20
2022-10-11T11:37:24.663Z,39.00
2022-10-11T11:39:58.270Z,37.70
2022-10-11T11:42:32.190Z,37.90
2022-10-11T11:45:06.634Z,38.40
2022-10-11T11:47:38.968Z,38.00
2022-10-11T11:50:22.530Z,37.60
2022-10-11T11:52:55.266Z,37.30
2022-10-11T11:55:32.491Z,37.00
2022-10-11T11:58:24.683Z,36.90
2022-10-11T12:01:08.692Z,36.80
2022-10-11T12:03:42.213Z,36.40
2022-10-11T12:06:30.127Z,36.40
2022-10-11T12:09:08.980Z,35.60
2022-10-11T12:11:52.343Z,35.40
2022-10-11T12:14:28.304Z,36.20
2022-10-11T12:17:15.178Z,37.20
2022-10-11T12:19:58.657Z,36.40
2022-10-11T12:22:53.954Z,37.40
2022-10-11T12:25:39.674Z,36.90
2022-10-11T12:28:48.760Z,36.50
2022-10-11T12:31:25.182Z,35.90
2022-10-11T12:34:17.280Z,35.80
2022-10-11T12:36:47.086Z,36.00
2022-10-11T12:39:51.959Z,35.90
2022-10-11T12:42:27.188Z,35.60
2022-10-11T12:45:30.316Z,33.80
2022-10-11T12:48:21.625Z,33.10
2022-10-11T12:51:02.831Z,33.70
2022-10-11T12:54:26.557Z,34.10
2022-10-11T12:57:02.546Z,33.30
2022-10-11T12:59:33.458Z,35.70
2022-10-11T13:02:02.342Z,34.30
2022-10-11T13:04:34.614Z,33.90
2022-10-11T13:07:07.570Z,32.80
2022-10-11T13:09:36.928Z,33.00
2022-10-11T13:12:14.684Z,33.30
2022-10-11T13:14:46.200Z,33.10
2022-10-11T13:17:20.611Z,33.50
2022-10-11T13:20:00.028Z,33.30
2022-10-11T13:22:28.715Z,33.60
2022-10-11T13:24:58.124Z,33.90
2022-10-11T13:27:28.579Z,34.00
2022-10-11T13:30:02.218Z,33.30
2022-10-11T13:32:32.372Z,33.00
2022-10-11T13:35:05.344Z,33.00
2022-10-11T13:37:39.411Z,32.80
2022-10-11T13:40:13.639Z,34.50
2022-10-11T13:42:42.328Z,34.00
2022-10-11T13:45:13.652Z,33.90
2022-10-11T13:47:42.008Z,33.70
2022-10-11T13:50:24.123Z,33.40
2022-10-11T13:52:56.601Z,32.00
2022-10-11T13:55:28.001Z,32.10
2022-10-11T13:57:57.647Z,32.20
2022-10-11T14:00:32.941Z,32.40
2022-10-11T14:03:04.634Z,32.10
2022-10-11T14:05:37.513Z,32.10
2022-10-11T14:08:09.067Z,31.90
2022-10-11T14:10:37.390Z,32.60
2022-10-11T14:13:21.866Z,32.70
2022-10-11T14:16:05.141Z,32.70
2022-10-11T14:18:39.960Z,32.10
2022-10-11T14:21:29.397Z,32.90
2022-10-11T14:23:59.593Z,33.20
2022-10-11T14:26:32.166Z,33.40
2022-10-11T14:29:02.615Z,33.70
2022-10-11T14:31:31.282Z,34.50
2022-10-11T14:33:59.776Z,33.90
2022-10-11T14:36:29.412Z,33.90
2022-10-11T14:38:57.627Z,33.90
2022-10-11T14:41:25.965Z,34.00
2022-10-11T14:43:56.403Z,34.60
2022-10-11T14:46:27.119Z,34.80
2022-10-11T14:48:56.709Z,35.00
2022-10-11T14:51:30.751Z,35.20
2022-10-11T14:53:59.314Z,35.30
2022-10-11T14:56:27.620Z,35.40
2022-10-11T14:58:55.871Z,35.40
2022-10-11T15:01:24.144Z,35.40
2022-10-11T15:03:52.461Z,35.40
2022-10-11T15:06:24.351Z,35.70
2022-10-11T15:08:54.048Z,36.00
2022-10-11T15:11:24.009Z,36.00
2022-10-11T15:13:52.443Z,36.20
2022-10-11T15:16:22.203Z,36.40
2022-10-11T15:18:52.172Z,36.50
2022-10-11T15:21:22.043Z,36.20
2022-10-11T15:23:51.327Z,36.10
2022-10-11T15:26:23.998Z,35.80
2022-10-11T15:28:53.531Z,36.00
2022-10-11T15:31:22.525Z,36.20
2022-10-11T15:33:52.104Z,36.40
2022-10-11T15:36:23.052Z,36.60
2022-10-11T15:38:51.505Z,36.80
2022-10-11T15:41:21.364Z,37.10
2022-10-11T15:43:50.347Z,37.00
2022-10-11T15:46:20.988Z,37.30
2022-10-11T15:48:50.637Z,37.60
2022-10-11T15:51:19.242Z,37.80
2022-10-11T15:53:48.588Z,38.10
2022-10-11T15:56:19.436Z,38.50
2022-10-11T15:58:49.047Z,38.80
2022-10-11T16:01:19.228Z,39.00
2022-10-11T16:03:48.574Z,39.30
2022-10-11T16:06:17.227Z,39.60
2022-10-11T16:08:45.661Z,39.90
2022-10-11T16:11:14.971Z,40.10
2022-10-11T16:13:43.201Z,40.40
2022-10-11T16:16:13.239Z,40.60
2022-10-11T16:18:41.591Z,40.80
2022-10-11T16:21:11.705Z,40.90
2022-10-11T16:23:40.365Z,41.20
2022-10-11T16:26:10.939Z,41.40
2022-10-11T16:28:39.857Z,41.60
2022-10-11T16:31:09.504Z,41.80
2022-10-11T16:33:45.825Z,42.00
2022-10-11T16:36:35.540Z,42.20
2022-10-11T16:39:08.216Z,42.30
2022-10-11T16:41:36.549Z,42.50
2022-10-11T16:44:05.061Z,42.50
2022-10-11T16:46:34.145Z,42.80
2022-10-11T16:49:04.154Z,43.00
2022-10-11T16:51:32.590Z,43.40
2022-10-11T16:54:00.976Z,43.50
2022-10-11T16:56:29.267Z,43.80
2022-10-11T16:58:58.026Z,44.00
2022-10-11T17:01:27.156Z,44.10
2022-10-11T17:03:55.823Z,44.30
2022-10-11T17:06:25.818Z,44.40
2022-10-11T17:08:54.171Z,44.60
2022-10-11T17:11:22.728Z,44.60
2022-10-11T17:13:53.480Z,44.90
2022-10-11T17:16:22.619Z,45.20
2022-10-11T17:18:51.482Z,45.40
2022-10-11T17:21:20.819Z,45.60
2022-10-11T17:23:50.900Z,45.80
2022-10-11T17:26:21.755Z,46.10
2022-10-11T17:28:50.135Z,46.40
2022-10-11T17:31:18.649Z,46.50
2022-10-11T17:33:46.891Z,46.50
2022-10-11T17:36:19.744Z,46.80
2022-10-11T17:38:50.152Z,47.20
2022-10-11T17:41:19.079Z,47.20
2022-10-11T17:43:47.663Z,47.40
2022-10-11T17:46:17.199Z,47.60
2022-10-11T17:48:45.699Z,47.90
2022-10-11T17:51:16.226Z,48.10
2022-10-11T17:53:45.335Z,48.40
2022-10-11T17:56:16.883Z,48.50
2022-10-11T17:58:45.278Z,48.70
2022-10-11T18:01:16.128Z,48.50
2022-10-11T18:03:45.058Z,48.70
2022-10-11T18:06:14.941Z,48.70
2022-10-11T18:08:43.308Z,48.80
2022-10-11T18:11:13.293Z,48.70
2022-10-11T18:13:46.350Z,49.00
2022-10-11T18:16:16.491Z,49.10
2022-10-11T18:18:45.330Z,49.20
2022-10-11T18:21:14.075Z,49.40
2022-10-11T18:23:42.918Z,49.50
2022-10-11T18:26:13.064Z,49.70
2022-10-11T18:28:43.327Z,50.00
2022-10-11T18:31:14.703Z,50.20
2022-10-11T18:33:45.591Z,50.40
2022-10-11T18:36:15.608Z,50.40
2022-10-11T18:38:46.736Z,50.40
2022-10-11T18:41:19.729Z,50.50
2022-10-11T18:44:02.280Z,50.70
2022-10-11T18:46:31.816Z,51.30
2022-10-11T18:49:02.216Z,50.80
2022-10-11T18:51:38.538Z,51.20
2022-10-11T18:54:12.874Z,51.30
2022-10-11T18:56:44.055Z,51.20
2022-10-11T18:59:16.673Z,51.00
2022-10-11T19:01:46.532Z,51.20
2022-10-11T19:07:14.039Z,51.10
2022-10-11T19:09:52.757Z,51.10
2022-10-11T19:12:26.817Z,51.50
2022-10-11T19:14:57.474Z,51.60
2022-10-11T19:17:31.812Z,51.80
2022-10-11T19:20:04.349Z,52.00
2022-10-11T19:22:35.977Z,52.60
2022-10-11T19:25:17.951Z,51.90
2022-10-11T19:27:51.031Z,52.80
2022-10-11T19:30:24.148Z,52.20
2022-10-11T19:33:00.901Z,52.50
2022-10-11T19:35:29.271Z,52.80
2022-10-11T19:38:12.362Z,52.70
2022-10-11T19:40:41.005Z,53.20
2022-10-11T19:43:11.618Z,53.00
2022-10-11T19:45:41.765Z,53.20
2022-10-11T19:48:10.437Z,53.50
2022-10-11T19:50:48.032Z,53.50
2022-10-11T19:53:16.682Z,53.50
2022-10-11T19:55:46.607Z,53.50
2022-10-11T19:58:15.007Z,53.50
2022-10-11T20:00:45.088Z,53.60
2022-10-11T20:03:13.396Z,53.80
2022-10-11T20:05:41.710Z,53.80
2022-10-11T20:08:10.257Z,53.80
2022-10-11T20:10:38.683Z,54.10
2022-10-11T20:13:11.540Z,54.30
2022-10-11T20:15:40.141Z,54.50
2022-10-11T20:18:09.835Z,54.50
2022-10-11T20:20:38.125Z,54.60
2022-10-11T20:23:06.406Z,54.50
2022-10-11T20:25:34.602Z,54.70
2022-10-11T20:28:04.975Z,54.80
2022-10-11T20:30:34.615Z,54.90
2022-10-11T20:33:03.352Z,54.90
2022-10-11T20:35:35.531Z,55.00
2022-10-11T20:38:04.701Z,55.30
2022-10-11T20:40:34.736Z,55.20
2022-10-11T20:43:05.316Z,55.30
2022-10-11T20:45:36.859Z,55.50
2022-10-11T20:48:08.311Z,55.40
2022-10-11T20:50:40.861Z,55.50
2022-10-11T20:53:16.415Z,55.60
2022-10-11T20:56:20.296Z,55.30
2022-10-11T20:58:54.721Z,55.90
2022-10-11T21:01:29.580Z,55.20
2022-10-11T21:03:59.759Z,55.30
2022-10-11T21:06:31.445Z,55.50
2022-10-11T21:09:03.700Z,55.80
2022-10-11T21:11:34.224Z,55.90
2022-10-11T21:14:05.866Z,56.00
2022-10-11T21:16:38.194Z,56.10
2022-10-11T21:19:07.998Z,56.00
2022-10-11T21:21:39.063Z,56.00
2022-10-11T21:24:12.322Z,56.10
2022-10-11T21:26:43.321Z,56.20
2022-10-11T21:29:14.326Z,56.00
2022-10-11T21:31:47.582Z,56.10
2022-10-11T21:34:18.630Z,56.20
2022-10-11T21:36:48.890Z,56.30
2022-10-11T21:39:17.586Z,56.40
2022-10-11T21:41:45.870Z,56.50
2022-10-11T21:44:14.154Z,56.40
2022-10-11T21:47:05.639Z,56.40
2022-10-11T21:49:30.573Z,56.50
2022-10-11T21:52:00.256Z,56.60
2022-10-11T21:54:28.524Z,56.80
2022-10-11T21:56:56.837Z,56.70
2022-10-11T21:59:25.117Z,56.80
2022-10-11T22:01:55.036Z,56.90
2022-10-11T22:04:26.518Z,56.90
2022-10-11T22:06:54.751Z,56.90
2022-10-11T22:09:25.088Z,57.00
2022-10-11T22:11:53.527Z,57.20
2022-10-11T22:14:26.651Z,57.30
2022-10-11T22:16:55.343Z,57.60
2022-10-11T22:19:23.889Z,57.30
2022-10-11T22:21:52.475Z,57.50
2022-10-11T22:24:20.714Z,57.50
2022-10-11T22:26:50.349Z,57.50
2022-10-11T22:29:18.586Z,57.90
2022-10-11T22:31:46.828Z,57.80
2022-10-11T22:34:15.058Z,57.90
2022-10-11T22:36:43.483Z,58.10
2022-10-11T22:39:11.763Z,58.20
2022-10-11T22:41:40.052Z,58.20
2022-10-11T22:44:09.770Z,58.30
2022-10-11T22:46:38.163Z,58.50
2022-10-11T22:49:06.511Z,58.40
2022-10-11T22:51:34.747Z,58.50
2022-10-11T22:54:02.938Z,58.60
2022-10-11T22:56:31.134Z,59.20
2022-10-11T22:59:00.423Z,58.70
2022-10-11T23:01:30.095Z,58.90
2022-10-11T23:03:58.397Z,59.00
2022-10-11T23:06:26.679Z,58.90
2022-10-11T23:09:12.622Z,58.80
2022-10-11T23:12:45.451Z,59.50
2022-10-11T23:15:16.884Z,59.50
2022-10-11T23:18:23.766Z,58.60
2022-10-11T23:20:53.417Z,59.60
2022-10-11T23:23:24.276Z,58.80
2022-10-11T23:26:02.279Z,58.80
2022-10-11T23:28:30.544Z,59.40
2022-10-11T23:30:58.790Z,59.40
2022-10-11T23:33:28.796Z,58.90
2022-10-11T23:35:58.383Z,59.00
2022-10-11T23:38:26.601Z,59.10
2022-10-11T23:40:54.824Z,59.10
2022-10-11T23:43:23.077Z,59.30
2022-10-11T23:45:51.299Z,59.40
2022-10-11T23:48:19.760Z,60.10
2022-10-11T23:50:48.230Z,59.50
2022-10-11T23:53:17.846Z,59.60
2022-10-11T23:55:46.232Z,59.70
2022-10-11T23:58:14.548Z,59.80
